createdAt,value
2023-04-16T00:00:07.920Z,9.55
2023-04-16T00:02:34.543Z,11.27
2023-04-16T00:05:04.092Z,13.38
2023-04-16T00:07:33.072Z,5.80
2023-04-16T00:09:59.631Z,8.48
2023-04-16T00:12:26.126Z,7.78
2023-04-16T00:14:55.286Z,6.25
2023-04-16T00:17:21.781Z,9.40
2023-04-16T00:19:48.253Z,8.25
2023-04-16T00:22:14.728Z,15.13
2023-04-16T00:24:41.526Z,8.20
2023-04-16T00:27:10.735Z,9.10
2023-04-16T00:29:37.239Z,7.80
2023-04-16T00:32:03.765Z,13.65
2023-04-16T00:34:30.492Z,7.05
2023-04-16T00:36:56.924Z,10.77
2023-04-16T00:39:23.558Z,7.93
2023-04-16T00:41:52.246Z,14.52
2023-04-16T00:44:21.417Z,16.48
2023-04-16T00:46:48.028Z,10.48
2023-04-16T00:49:14.917Z,11.93
2023-04-16T00:51:41.452Z,15.02
2023-04-16T00:54:07.964Z,9.13
2023-04-16T00:56:38.007Z,10.45
2023-04-16T00:59:07.658Z,17.98
2023-04-16T01:01:39.188Z,17.95
2023-04-16T01:04:07.203Z,15.60
2023-04-16T01:06:34.255Z,12.85
2023-04-16T01:09:05.737Z,13.27
2023-04-16T01:11:32.673Z,17.33
2023-04-16T01:13:59.139Z,10.90
2023-04-16T01:16:26.876Z,13.02
2023-04-16T01:18:53.450Z,10.18
2023-04-16T01:21:19.952Z,17.45
2023-04-16T01:23:46.526Z,14.18
2023-04-16T01:26:18.090Z,16.10
2023-04-16T01:28:44.570Z,15.13
2023-04-16T01:31:11.132Z,16.33
2023-04-16T01:33:40.632Z,14.93
2023-04-16T01:36:09.599Z,15.27
2023-04-16T01:38:38.496Z,13.73
2023-04-16T01:41:09.807Z,19.58
2023-04-16T01:43:40.274Z,14.43
2023-04-16T01:46:25.949Z,19.80
2023-04-16T01:48:54.918Z,19.33
2023-04-16T01:51:22.178Z,12.38
2023-04-16T01:53:49.467Z,22.42
2023-04-16T01:56:16.179Z,19.73
2023-04-16T01:58:46.449Z,20.35
2023-04-16T02:01:13.746Z,15.43
2023-04-16T02:03:40.954Z,14.90
2023-04-16T02:06:10.314Z,18.33
2023-04-16T02:08:39.232Z,16.13
2023-04-16T02:11:05.795Z,21.55
2023-04-16T02:13:35.748Z,18.20
2023-04-16T02:16:02.718Z,20.35
2023-04-16T02:18:29.304Z,15.45
2023-04-16T02:21:01.043Z,20.35
2023-04-16T02:23:27.726Z,25.35
2023-04-16T02:25:58.878Z,13.88
2023-04-16T02:28:27.719Z,20.38
2023-04-16T02:30:56.567Z,18.75
2023-04-16T02:33:26.736Z,23.38
2023-04-16T02:35:53.282Z,14.70
2023-04-16T02:38:19.788Z,16.33
2023-04-16T02:40:46.309Z,21.92
2023-04-16T02:43:12.795Z,15.65
2023-04-16T02:45:39.309Z,20.58
2023-04-16T02:48:07.284Z,20.05
2023-04-16T02:50:33.757Z,18.83
2023-04-16T02:53:00.230Z,23.88
2023-04-16T02:55:26.853Z,23.50
2023-04-16T02:57:58.088Z,23.38
2023-04-16T03:00:24.558Z,20.50
2023-04-16T03:02:51.283Z,26.38
2023-04-16T03:05:22.858Z,25.95
2023-04-16T03:07:50.633Z,18.90
2023-04-16T03:10:19.477Z,20.15
2023-04-16T03:12:48.381Z,19.95
2023-04-16T03:15:15.229Z,20.17
2023-04-16T03:17:44.219Z,28.20
2023-04-16T03:20:11.169Z,17.95
2023-04-16T03:22:39.186Z,23.38
2023-04-16T03:25:06.602Z,19.42
2023-04-16T03:27:33.385Z,18.33
2023-04-16T03:30:03.265Z,19.27
2023-04-16T03:32:32.284Z,24.73
2023-04-16T03:34:58.904Z,24.52
2023-04-16T03:37:27.687Z,23.45
2023-04-16T03:39:54.320Z,25.77
2023-04-16T03:42:22.917Z,21.33
2023-04-16T03:44:53.592Z,20.98
2023-04-16T03:47:22.472Z,28.00
2023-04-16T03:49:51.312Z,21.35
2023-04-16T03:52:17.819Z,25.05
2023-04-16T03:54:46.818Z,21.23
2023-04-16T03:57:13.320Z,19.70
2023-04-16T03:59:42.056Z,16.63
2023-04-16T04:02:08.633Z,20.65
2023-04-16T04:04:35.318Z,19.23
2023-04-16T04:07:01.883Z,16.52
2023-04-16T04:09:28.405Z,20.17
2023-04-16T04:11:54.984Z,16.98
2023-04-16T04:14:21.743Z,18.23
2023-04-16T04:16:50.680Z,12.68
2023-04-16T04:19:17.197Z,20.13
2023-04-16T04:21:43.701Z,18.23
2023-04-16T04:24:10.381Z,16.50
2023-04-16T04:26:38.925Z,18.13
2023-04-16T04:29:05.654Z,19.55
2023-04-16T04:31:32.311Z,20.30
2023-04-16T04:34:01.025Z,16.52
2023-04-16T04:36:29.975Z,17.80
2023-04-16T04:38:56.486Z,16.98
2023-04-16T04:41:23.199Z,20.08
2023-04-16T04:43:49.679Z,24.65
2023-04-16T04:46:16.144Z,24.25
2023-04-16T04:48:44.914Z,19.45
2023-04-16T04:51:13.944Z,25.10
2023-04-16T04:53:42.954Z,24.33
2023-04-16T04:56:12.907Z,25.52
2023-04-16T04:58:40.900Z,18.75
2023-04-16T05:01:07.469Z,19.38
2023-04-16T05:03:34.057Z,14.60
2023-04-16T05:06:00.759Z,24.30
2023-04-16T05:08:29.384Z,25.73
2023-04-16T05:10:58.143Z,20.00
2023-04-16T05:13:24.707Z,19.52
2023-04-16T05:15:54.215Z,18.65
2023-04-16T05:18:20.641Z,20.95
2023-04-16T05:20:52.007Z,21.88
2023-04-16T05:23:18.456Z,20.38
2023-04-16T05:25:47.699Z,19.00
2023-04-16T05:28:14.588Z,21.08
2023-04-16T05:30:41.207Z,22.20
2023-04-16T05:33:07.726Z,19.95
2023-04-16T05:35:38.795Z,16.25
2023-04-16T05:38:05.269Z,16.67
2023-04-16T05:40:36.769Z,17.95
2023-04-16T05:43:03.380Z,15.35
2023-04-16T05:45:33.433Z,16.25
2023-04-16T05:48:00.019Z,19.45
2023-04-16T05:50:26.536Z,13.15
2023-04-16T05:52:57.994Z,21.05
2023-04-16T05:55:24.510Z,15.55
2023-04-16T05:57:52.077Z,18.50
2023-04-16T06:00:20.879Z,17.48
2023-04-16T06:02:47.549Z,17.75
2023-04-16T06:05:16.248Z,19.02
2023-04-16T06:07:47.527Z,16.60
2023-04-16T06:10:16.594Z,25.15
2023-04-16T06:12:45.373Z,22.48
2023-04-16T06:15:11.878Z,18.15
2023-04-16T06:17:40.795Z,15.70
2023-04-16T06:20:10.892Z,28.67
2023-04-16T06:22:37.551Z,22.88
2023-04-16T06:25:04.346Z,19.75
2023-04-16T06:27:31.422Z,22.73
2023-04-16T06:30:00.981Z,17.13
2023-04-16T06:32:30.086Z,24.83
2023-04-16T06:34:59.090Z,17.05
2023-04-16T06:37:25.630Z,20.35
2023-04-16T06:39:52.085Z,26.17
2023-04-16T06:42:18.549Z,17.75
2023-04-16T06:44:45.088Z,25.55
2023-04-16T06:47:16.200Z,15.43
2023-04-16T06:49:42.652Z,26.60
2023-04-16T06:52:11.439Z,15.75
2023-04-16T06:54:42.649Z,17.63
2023-04-16T06:57:13.920Z,21.58
2023-04-16T06:59:40.594Z,19.33
2023-04-16T07:02:10.601Z,22.00
2023-04-16T07:04:37.294Z,17.83
2023-04-16T07:07:06.105Z,18.42
2023-04-16T07:09:32.566Z,23.17
2023-04-16T07:11:59.058Z,25.45
2023-04-16T07:14:25.525Z,21.08
2023-04-16T07:16:52.095Z,24.45
2023-04-16T07:19:21.201Z,22.23
2023-04-16T07:21:47.812Z,22.67
2023-04-16T07:24:17.506Z,22.92
2023-04-16T07:26:43.983Z,15.80
2023-04-16T07:29:10.609Z,25.45
2023-04-16T07:31:37.311Z,20.63
2023-04-16T07:34:03.891Z,19.27
2023-04-16T07:36:32.852Z,21.05
2023-04-16T07:38:59.350Z,24.17
2023-04-16T07:41:29.394Z,20.33
2023-04-16T07:43:58.149Z,22.83
2023-04-16T07:46:28.236Z,22.40
2023-04-16T07:48:57.055Z,19.23
2023-04-16T07:51:23.957Z,24.27
2023-04-16T07:53:52.873Z,17.10
2023-04-16T07:56:19.335Z,21.95
2023-04-16T07:58:45.792Z,25.48
2023-04-16T08:01:16.797Z,22.73
2023-04-16T08:03:45.679Z,21.73
2023-04-16T08:06:12.368Z,22.73
2023-04-16T08:08:38.794Z,21.05
2023-04-16T08:11:05.282Z,22.77
2023-04-16T08:13:33.499Z,18.83
2023-04-16T08:16:03.566Z,24.23
2023-04-16T08:18:34.722Z,20.73
2023-04-16T08:21:01.512Z,20.73
2023-04-16T08:23:28.035Z,19.35
2023-04-16T08:25:56.755Z,16.60
2023-04-16T08:28:25.610Z,15.57
2023-04-16T08:30:52.181Z,16.05
2023-04-16T08:33:21.780Z,18.70
2023-04-16T08:35:48.362Z,19.15
2023-04-16T08:38:14.827Z,14.32
2023-04-16T08:40:48.672Z,11.95
2023-04-16T08:43:19.361Z,12.07
2023-04-16T08:45:50.532Z,13.02
2023-04-16T08:48:20.702Z,19.63
2023-04-16T08:50:52.299Z,12.10
2023-04-16T08:53:24.743Z,12.05
2023-04-16T08:56:02.107Z,10.95
2023-04-16T08:58:31.895Z,10.63
2023-04-16T09:01:03.265Z,12.50
2023-04-16T09:03:34.816Z,14.32
2023-04-16T09:06:04.478Z,13.65
2023-04-16T09:11:01.883Z,14.27
2023-04-16T09:13:28.495Z,14.27
2023-04-16T09:15:56.956Z,10.88
2023-04-16T09:18:24.297Z,11.75
2023-04-16T09:20:51.938Z,14.43
2023-04-16T09:23:18.486Z,11.63
2023-04-16T09:25:45.122Z,9.77
2023-04-16T09:28:41.064Z,12.73
2023-04-16T09:31:11.311Z,8.80
2023-04-16T09:33:40.497Z,11.00
2023-04-16T09:36:07.592Z,10.32
2023-04-16T09:38:48.698Z,10.02
2023-04-16T09:41:18.517Z,10.32
2023-04-16T09:43:58.124Z,11.25
2023-04-16T09:46:29.991Z,9.10
2023-04-16T09:48:56.631Z,12.13
2023-04-16T09:51:28.305Z,9.60
2023-04-16T09:53:58.901Z,16.50
2023-04-16T09:56:26.135Z,22.70
2023-04-16T09:58:59.753Z,14.80
2023-04-16T10:01:26.392Z,11.90
2023-04-16T10:03:55.327Z,10.90
2023-04-16T10:06:29.096Z,9.73
2023-04-16T10:08:58.267Z,12.75
2023-04-16T10:11:25.709Z,13.43
2023-04-16T10:13:52.192Z,12.55
2023-04-16T10:16:23.482Z,12.65
2023-04-16T10:18:50.032Z,14.77
2023-04-16T10:21:16.746Z,10.38
2023-04-16T10:23:44.036Z,12.77
2023-04-16T10:26:13.916Z,13.03
2023-04-16T10:28:40.691Z,17.00
2023-04-16T10:31:10.636Z,16.42
2023-04-16T10:33:43.261Z,15.60
2023-04-16T10:36:22.855Z,14.30
2023-04-16T10:38:58.794Z,20.48
2023-04-16T10:41:28.831Z,17.92
2023-04-16T10:44:09.849Z,14.50
2023-04-16T10:46:39.929Z,18.05
2023-04-16T10:49:14.280Z,18.90
2023-04-16T10:51:53.359Z,16.50
2023-04-16T10:54:34.201Z,16.58
2023-04-16T10:57:10.140Z,17.52
2023-04-16T10:59:38.081Z,20.52
2023-04-16T11:02:11.860Z,16.35
2023-04-16T11:04:40.274Z,19.23
2023-04-16T11:07:18.797Z,18.08
2023-04-16T11:10:03.098Z,16.73
2023-04-16T11:12:29.836Z,18.13
2023-04-16T11:15:00.873Z,23.23
2023-04-16T11:17:43.150Z,17.88
2023-04-16T11:20:32.413Z,21.58
2023-04-16T11:22:58.962Z,19.33
2023-04-16T11:25:29.449Z,15.70
2023-04-16T11:27:59.186Z,16.88
2023-04-16T11:30:34.098Z,17.75
2023-04-16T11:33:09.404Z,12.02
2023-04-16T11:35:35.981Z,15.05
2023-04-16T11:38:02.594Z,14.88
2023-04-16T11:40:34.899Z,14.95
2023-04-16T11:43:17.203Z,15.98
2023-04-16T11:46:00.592Z,12.20
2023-04-16T11:48:46.932Z,14.52
2023-04-16T11:51:13.893Z,12.60
2023-04-16T11:53:51.363Z,16.35
2023-04-16T11:56:26.149Z,13.95
2023-04-16T11:59:14.418Z,19.25
2023-04-16T12:01:45.984Z,22.83
2023-04-16T12:04:19.216Z,16.73
2023-04-16T12:07:14.883Z,16.25
2023-04-16T12:09:43.412Z,16.25
2023-04-16T12:12:27.391Z,21.20
2023-04-16T12:14:54.780Z,20.55
2023-04-16T12:17:24.171Z,23.03
2023-04-16T12:19:56.022Z,24.33
2023-04-16T12:22:37.222Z,23.95
2023-04-16T12:25:10.621Z,16.17
2023-04-16T12:27:53.670Z,19.45
2023-04-16T12:30:26.069Z,19.77
2023-04-16T12:33:13.722Z,22.67
2023-04-16T12:35:43.541Z,24.10
2023-04-16T12:38:10.631Z,26.63
2023-04-16T12:40:39.337Z,27.25
2023-04-16T12:43:11.761Z,23.75
2023-04-16T12:45:39.753Z,21.42
2023-04-16T12:48:06.688Z,24.13
2023-04-16T12:50:35.771Z,20.17
2023-04-16T12:53:02.505Z,23.60
2023-04-16T12:55:28.952Z,21.48
2023-04-16T12:57:57.781Z,24.35
2023-04-16T13:00:26.748Z,26.45
2023-04-16T13:02:53.381Z,25.23
2023-04-16T13:05:22.650Z,27.63
2023-04-16T13:07:49.106Z,25.58
2023-04-16T13:10:18.155Z,21.77
2023-04-16T13:12:47.778Z,22.40
2023-04-16T13:15:14.279Z,25.77
2023-04-16T13:17:40.799Z,27.23
2023-04-16T13:20:10.123Z,23.80
2023-04-16T13:22:36.850Z,25.05
2023-04-16T13:25:03.394Z,24.60
2023-04-16T13:27:32.234Z,25.17
2023-04-16T13:30:01.347Z,20.92
2023-04-16T13:32:27.974Z,24.23
2023-04-16T13:34:54.580Z,20.38
2023-04-16T13:37:23.388Z,21.70
2023-04-16T13:39:52.578Z,20.30
2023-04-16T13:42:19.049Z,18.95
2023-04-16T13:44:48.845Z,22.67
2023-04-16T13:47:16.068Z,21.30
2023-04-16T13:49:47.601Z,19.70
2023-04-16T13:52:18.633Z,20.15
2023-04-16T13:54:45.100Z,27.13
2023-04-16T13:57:16.354Z,14.98
2023-04-16T13:59:42.806Z,19.17
2023-04-16T14:02:10.692Z,15.48
2023-04-16T14:04:37.233Z,15.80
2023-04-16T14:07:06.085Z,15.77
2023-04-16T14:09:35.097Z,22.23
2023-04-16T14:12:01.608Z,18.80
2023-04-16T14:14:35.373Z,17.00
2023-04-16T14:17:07.613Z,18.02
2023-04-16T14:19:34.428Z,14.95
2023-04-16T14:22:06.950Z,14.98
2023-04-16T14:24:34.410Z,14.23
2023-04-16T14:27:03.320Z,15.48
2023-04-16T14:29:36.364Z,14.10
2023-04-16T14:32:02.997Z,20.50
2023-04-16T14:34:29.497Z,11.63
2023-04-16T14:36:58.707Z,12.05
2023-04-16T14:39:27.605Z,13.05
2023-04-16T14:41:54.160Z,20.10
2023-04-16T14:44:21.593Z,15.45
2023-04-16T14:46:48.381Z,16.63
2023-04-16T14:49:15.107Z,11.45
2023-04-16T14:51:42.226Z,19.45
2023-04-16T14:54:09.141Z,14.82
2023-04-16T14:56:37.876Z,17.67
2023-04-16T14:59:04.611Z,12.75
2023-04-16T15:01:32.208Z,20.65
2023-04-16T15:04:02.050Z,17.58
2023-04-16T15:06:32.304Z,20.52
2023-04-16T15:08:58.996Z,15.77
2023-04-16T15:11:25.701Z,19.92
2023-04-16T15:13:54.525Z,19.50
2023-04-16T15:16:23.423Z,21.00
2023-04-16T15:18:50.795Z,11.85
2023-04-16T15:21:17.313Z,15.57
2023-04-16T15:23:46.169Z,14.95
2023-04-16T15:26:15.365Z,19.70
2023-04-16T15:28:41.849Z,21.38
2023-04-16T15:31:08.915Z,15.55
2023-04-16T15:33:35.448Z,15.63
2023-04-16T15:36:01.899Z,13.63
2023-04-16T15:38:30.656Z,13.18
2023-04-16T15:41:02.634Z,16.25
2023-04-16T15:43:29.776Z,24.70
2023-04-16T15:45:57.184Z,16.57
2023-04-16T15:48:24.528Z,15.00
2023-04-16T15:50:54.243Z,23.20
2023-04-16T15:53:21.209Z,19.45
2023-04-16T15:55:50.312Z,13.45
2023-04-16T15:58:16.937Z,15.48
2023-04-16T16:00:46.418Z,18.10
2023-04-16T16:03:19.144Z,15.45
2023-04-16T16:05:47.179Z,22.58
2023-04-16T16:08:16.935Z,14.45
2023-04-16T16:10:46.767Z,16.85
2023-04-16T16:13:16.014Z,21.10
2023-04-16T16:15:42.537Z,16.35
2023-04-16T16:18:09.243Z,19.75
2023-04-16T16:20:37.015Z,19.92
2023-04-16T16:23:06.358Z,22.45
2023-04-16T16:25:32.989Z,18.98
2023-04-16T16:27:59.984Z,20.75
2023-04-16T16:30:28.948Z,25.02
2023-04-16T16:32:58.302Z,25.90
2023-04-16T16:35:26.055Z,19.83
2023-04-16T16:37:57.307Z,16.75
2023-04-16T16:40:24.426Z,16.13
2023-04-16T16:42:53.660Z,17.58
2023-04-16T16:45:22.676Z,18.33
2023-04-16T16:47:51.854Z,16.63
2023-04-16T16:50:18.536Z,23.25
2023-04-16T16:52:47.268Z,20.88
2023-04-16T16:57:42.907Z,17.63
2023-04-16T17:00:15.043Z,24.38
2023-04-16T17:02:42.077Z,23.92
2023-04-16T17:05:09.482Z,23.20
2023-04-16T17:07:36.394Z,21.30
2023-04-16T17:10:05.269Z,21.20
2023-04-16T17:12:33.222Z,22.58
2023-04-16T17:15:01.750Z,18.67
2023-04-16T17:17:29.219Z,26.27
2023-04-16T17:19:55.733Z,16.15
2023-04-16T17:22:22.240Z,16.77
2023-04-16T17:24:48.817Z,20.42
2023-04-16T17:27:15.289Z,25.60
2023-04-16T17:29:44.179Z,17.95
2023-04-16T17:32:12.997Z,20.48
2023-04-16T17:34:39.484Z,20.05
2023-04-16T17:37:06.060Z,19.85
2023-04-16T17:39:32.543Z,20.35
2023-04-16T17:42:01.229Z,23.52
2023-04-16T17:44:28.015Z,18.02
2023-04-16T17:46:59.179Z,24.08
2023-04-16T17:49:25.747Z,15.93
2023-04-16T17:51:53.791Z,15.52
2023-04-16T17:54:21.285Z,18.10
2023-04-16T17:56:47.743Z,16.50
2023-04-16T17:59:14.213Z,20.23
2023-04-16T18:01:41.686Z,18.98
2023-04-16T18:04:10.962Z,18.48
2023-04-16T18:06:39.958Z,21.45
2023-04-16T18:09:07.229Z,17.48
2023-04-16T18:11:34.026Z,16.90
2023-04-16T18:14:00.487Z,18.95
2023-04-16T18:16:26.960Z,18.95
2023-04-16T18:18:53.529Z,21.42
2023-04-16T18:21:22.482Z,18.10
2023-04-16T18:23:48.992Z,21.25
2023-04-16T18:26:18.647Z,21.77
2023-04-16T18:28:49.887Z,20.70
2023-04-16T18:31:18.993Z,26.73
2023-04-16T18:33:56.332Z,19.98
2023-04-16T18:36:24.457Z,18.92
2023-04-16T18:39:00.891Z,25.48
2023-04-16T18:41:33.007Z,23.23
2023-04-16T18:43:59.491Z,18.73
2023-04-16T18:46:27.740Z,24.33
2023-04-16T18:48:54.415Z,25.73
2023-04-16T18:51:21.295Z,25.75
2023-04-16T18:53:50.649Z,25.55
2023-04-16T18:56:19.812Z,24.23
2023-04-16T18:58:49.292Z,24.55
2023-04-16T19:01:16.515Z,19.55
2023-04-16T19:03:43.242Z,23.17
2023-04-16T19:06:09.794Z,26.40
2023-04-16T19:08:36.470Z,25.77
2023-04-16T19:11:02.942Z,26.67
2023-04-16T19:13:30.442Z,26.55
2023-04-16T19:16:01.420Z,21.95
2023-04-16T19:18:28.092Z,29.35
2023-04-16T19:21:03.443Z,19.02
2023-04-16T19:23:34.703Z,24.10
2023-04-16T19:26:01.623Z,22.15
2023-04-16T19:28:28.460Z,21.60
2023-04-16T19:30:57.117Z,20.90
2023-04-16T19:33:26.170Z,24.35
2023-04-16T19:35:55.816Z,22.38
2023-04-16T19:38:22.396Z,24.33
2023-04-16T19:40:49.008Z,26.40
2023-04-16T19:43:17.809Z,21.23
2023-04-16T19:45:53.394Z,23.33
2023-04-16T19:48:23.447Z,23.98
2023-04-16T19:50:49.978Z,22.85
2023-04-16T19:53:19.347Z,25.40
2023-04-16T19:55:45.900Z,63.03
2023-04-16T19:58:14.402Z,27.08
2023-04-16T20:00:43.723Z,28.02
2023-04-16T20:03:10.704Z,24.67
2023-04-16T20:05:37.213Z,42.05
2023-04-16T20:08:03.809Z,37.78
2023-04-16T20:10:31.547Z,41.75
2023-04-16T20:12:58.224Z,50.28
2023-04-16T20:15:24.773Z,24.67
2023-04-16T20:17:53.524Z,17.10
2023-04-16T20:20:20.149Z,32.50
2023-04-16T20:22:46.645Z,21.60
2023-04-16T20:25:14.318Z,20.88
2023-04-16T20:27:40.774Z,23.73
2023-04-16T20:30:07.815Z,22.40
2023-04-16T20:32:36.789Z,22.25
2023-04-16T20:35:10.246Z,33.25
2023-04-16T20:37:38.519Z,31.40
2023-04-16T20:42:35.754Z,24.77
2023-04-16T20:45:04.847Z,23.63
2023-04-16T20:47:31.363Z,22.50
2023-04-16T20:50:01.693Z,24.98
2023-04-16T20:52:30.761Z,25.23
2023-04-16T20:54:57.846Z,25.25
2023-04-16T20:57:24.348Z,22.80
2023-04-16T20:59:53.334Z,24.77
2023-04-16T21:02:20.677Z,28.30
2023-04-16T21:04:47.326Z,22.53
2023-04-16T21:07:14.241Z,23.83
2023-04-16T21:09:40.755Z,21.80
2023-04-16T21:12:07.487Z,33.90
2023-04-16T21:14:36.344Z,27.70
2023-04-16T21:17:07.682Z,23.40
2023-04-16T21:19:36.440Z,30.00
2023-04-16T21:22:02.888Z,28.35
2023-04-16T21:24:34.901Z,25.33
2023-04-16T21:27:06.252Z,29.13
2023-04-16T21:29:32.768Z,31.50
2023-04-16T21:31:59.296Z,26.67
2023-04-16T21:34:25.820Z,27.77
2023-04-16T21:36:54.468Z,27.13
2023-04-16T21:39:25.902Z,15.95
2023-04-16T21:41:52.367Z,23.17
2023-04-16T21:44:21.345Z,22.65
2023-04-16T21:46:50.344Z,23.00
2023-04-16T21:49:16.779Z,21.83
2023-04-16T21:51:46.109Z,20.83
2023-04-16T21:54:12.883Z,25.52
2023-04-16T21:56:39.428Z,20.33
2023-04-16T21:59:09.053Z,21.95
2023-04-16T22:01:40.231Z,23.25
2023-04-16T22:04:07.454Z,25.20
2023-04-16T22:06:34.167Z,22.80
2023-04-16T22:09:01.673Z,28.23
2023-04-16T22:11:30.574Z,25.52
2023-04-16T22:13:59.425Z,22.90
2023-04-16T22:16:25.982Z,27.45
2023-04-16T22:18:55.072Z,20.77
2023-04-16T22:21:21.585Z,27.73
2023-04-16T22:23:48.407Z,28.73
2023-04-16T22:26:14.908Z,28.73
2023-04-16T22:28:41.596Z,28.05
2023-04-16T22:31:10.577Z,30.98
2023-04-16T22:33:39.159Z,27.52
2023-04-16T22:36:06.252Z,23.98
2023-04-16T22:38:32.727Z,27.08
2023-04-16T22:40:59.251Z,27.58
2023-04-16T22:43:25.717Z,25.77
2023-04-16T22:46:02.433Z,28.20
2023-04-16T22:48:31.772Z,29.83
2023-04-16T22:50:58.299Z,27.58
2023-04-16T22:53:24.913Z,24.40
2023-04-16T22:55:51.432Z,29.98
2023-04-16T22:58:17.980Z,27.27
2023-04-16T23:00:47.847Z,24.75
2023-04-16T23:03:19.609Z,26.10
2023-04-16T23:05:48.604Z,27.70
2023-04-16T23:08:15.049Z,32.08
2023-04-16T23:10:43.885Z,22.20
2023-04-16T23:13:13.400Z,25.67
2023-04-16T23:15:39.847Z,28.58
2023-04-16T23:18:08.944Z,26.88
2023-04-16T23:20:35.532Z,32.38
2023-04-16T23:23:02.045Z,30.58
2023-04-16T23:25:30.958Z,32.13
2023-04-16T23:27:57.489Z,34.85
2023-04-16T23:30:23.956Z,32.92
2023-04-16T23:32:50.655Z,27.25
2023-04-16T23:35:22.663Z,27.75
2023-04-16T23:37:49.625Z,29.50
2023-04-16T23:40:19.127Z,29.50
2023-04-16T23:42:48.092Z,28.98
2023-04-16T23:45:14.605Z,26.40
2023-04-16T23:47:41.232Z,24.55
2023-04-16T23:50:07.894Z,23.27
2023-04-16T23:52:34.453Z,18.95
2023-04-16T23:55:03.317Z,23.73
2023-04-16T23:57:32.080Z,19.35
2023-04-16T23:59:58.558Z,23.23
